createdAt,value
2022-08-30T11:36:47.910Z,101061.52
2022-08-30T11:40:02.005Z,101075.92
2022-08-30T11:42:57.028Z,101078.14
2022-08-30T11:45:52.789Z,101076.66
2022-08-30T11:48:51.344Z,101076.35
2022-08-30T11:51:40.838Z,101075.63
2022-08-30T11:54:53.279Z,101077.84
2022-08-30T11:57:52.704Z,101076.88
2022-08-30T12:00:38.038Z,101073.20
2022-08-30T12:03:22.333Z,101072.35
2022-08-30T12:06:14.721Z,101073.50
2022-08-30T12:09:10.942Z,101075.71
2022-08-30T12:12:07.967Z,101071.85
2022-08-30T12:15:05.724Z,101070.31
2022-08-30T12:18:25.846Z,101066.43
2022-08-30T12:21:11.769Z,101068.15
2022-08-30T12:24:08.141Z,101064.33
2022-08-30T12:26:51.681Z,101064.23
2022-08-30T12:29:35.802Z,101059.39
2022-08-30T12:32:28.760Z,101059.89
2022-08-30T12:35:23.071Z,101063.21
2022-08-30T12:38:09.063Z,101063.39
2022-08-30T12:40:54.995Z,101066.37
2022-08-30T12:43:46.782Z,101060.50
2022-08-30T12:46:34.843Z,101063.77
2022-08-30T12:49:20.787Z,101060.02
2022-08-30T12:52:35.894Z,101061.85
2022-08-30T12:55:24.536Z,101061.27
2022-08-30T12:58:20.692Z,101066.25
2022-08-30T13:01:34.449Z,101064.15
2022-08-30T13:04:31.228Z,101063.67
2022-08-30T13:07:27.774Z,101060.54
2022-08-30T13:10:26.958Z,101064.48
2022-08-30T13:13:24.798Z,101058.38
2022-08-30T13:16:22.134Z,101062.34
2022-08-30T13:19:18.753Z,101057.79
2022-08-30T13:22:19.775Z,101058.31
2022-08-30T13:25:17.019Z,101058.02
2022-08-30T13:28:14.178Z,101056.07
2022-08-30T13:31:10.986Z,101051.77
2022-08-30T13:34:09.337Z,101049.83
2022-08-30T13:37:06.027Z,101052.43
2022-08-30T13:40:04.899Z,101050.23
2022-08-30T13:43:00.812Z,101047.48
2022-08-30T13:45:59.356Z,101052.10
2022-08-30T13:48:55.915Z,101053.73
2022-08-30T13:55:41.075Z,101058.48
2022-08-30T13:58:26.035Z,101066.11
2022-08-30T14:01:23.852Z,101061.16
2022-08-30T14:04:21.892Z,101068.02
2022-08-30T14:07:28.626Z,101068.23
2022-08-30T14:10:33.081Z,101063.98
2022-08-30T14:13:21.792Z,101059.12
2022-08-30T14:18:48.268Z,101070.16
2022-08-30T14:21:33.607Z,101073.23
2022-08-30T14:25:01.645Z,101074.98
2022-08-30T14:27:26.720Z,101075.70
2022-08-30T14:30:21.339Z,101071.91
2022-08-30T14:33:10.542Z,101073.21
2022-08-30T14:36:15.479Z,101070.30
2022-08-30T14:39:12.633Z,101074.02
2022-08-30T14:42:12.274Z,101070.98
2022-08-30T14:45:19.511Z,101073.67
2022-08-30T14:48:20.047Z,101075.40
2022-08-30T14:51:18.364Z,101072.63
2022-08-30T14:54:14.543Z,101069.36
2022-08-30T14:57:01.864Z,101073.42
2022-08-30T14:59:51.717Z,101071.33
2022-08-30T15:02:47.529Z,101074.63
2022-08-30T15:05:46.387Z,101074.30
2022-08-30T15:08:42.537Z,101074.49
2022-08-30T15:11:44.007Z,101071.58
2022-08-30T15:14:40.662Z,101069.13
2022-08-30T15:17:33.704Z,101076.06
2022-08-30T15:20:29.722Z,101076.16
2022-08-30T15:23:26.513Z,101074.70
2022-08-30T15:26:13.745Z,101074.05
2022-08-30T15:29:05.745Z,101073.11
2022-08-30T15:31:55.530Z,101075.42
2022-08-30T15:34:42.686Z,101071.41
2022-08-30T15:41:13.046Z,101071.27
2022-08-30T15:43:59.052Z,101064.77
2022-08-30T15:46:43.202Z,101062.45
2022-08-30T15:49:19.884Z,101067.75
2022-08-30T15:52:09.817Z,101064.65
2022-08-30T15:54:49.989Z,101062.40
2022-08-30T15:57:36.697Z,101057.69
2022-08-30T16:00:20.754Z,101056.59
2022-08-30T16:03:06.355Z,101049.38
2022-08-30T16:05:55.681Z,101042.42
2022-08-30T16:08:28.633Z,101043.64
2022-08-30T16:11:22.763Z,101043.42
2022-08-30T16:14:04.833Z,101050.70
2022-08-30T16:16:42.193Z,101049.46
2022-08-30T16:19:35.657Z,101050.42
2022-08-30T16:22:12.861Z,101046.14
2022-08-30T16:25:01.642Z,101048.17
2022-08-30T16:27:53.721Z,101044.77
2022-08-30T16:30:39.602Z,101043.54
2022-08-30T16:33:24.515Z,101048.77
2022-08-30T16:36:04.649Z,101047.89
2022-08-30T16:38:47.655Z,101045.20
2022-08-30T16:41:30.583Z,101041.19
2022-08-30T16:44:08.667Z,101046.48
2022-08-30T16:46:53.031Z,101042.40
2022-08-30T16:49:35.578Z,101042.55
2022-08-30T16:52:19.911Z,101041.64
2022-08-30T16:55:04.680Z,101041.63
2022-08-30T16:57:58.581Z,101039.39
2022-08-30T17:00:58.545Z,101041.13
2022-08-30T17:03:38.615Z,101039.59
2022-08-30T17:06:26.439Z,101039.73
2022-08-30T17:09:15.109Z,101041.13
2022-08-30T17:12:04.550Z,101035.60
2022-08-30T17:14:53.468Z,101039.44
2022-08-30T17:17:36.673Z,101042.27
2022-08-30T17:20:32.105Z,101043.47
2022-08-30T17:23:22.721Z,101043.45
2022-08-30T17:26:01.868Z,101046.62
2022-08-30T17:28:55.633Z,101042.61
2022-08-30T17:31:41.154Z,101048.02
2022-08-30T17:34:29.522Z,101052.73
2022-08-30T17:37:08.202Z,101051.02
2022-08-30T17:40:00.835Z,101055.59
2022-08-30T17:42:45.171Z,101055.63
2022-08-30T17:45:31.013Z,101060.00
2022-08-30T17:48:23.525Z,101063.52
2022-08-30T17:51:18.573Z,101066.73
2022-08-30T17:54:13.164Z,101065.33
2022-08-30T17:56:59.592Z,101070.20
2022-08-30T18:00:01.385Z,101071.70
2022-08-30T18:02:58.207Z,101076.23
2022-08-30T18:05:44.297Z,101078.02
2022-08-30T18:08:45.930Z,101077.58
2022-08-30T18:11:24.583Z,101078.30
2022-08-30T18:14:13.432Z,101079.16
2022-08-30T18:17:09.835Z,101080.80
2022-08-30T18:20:04.565Z,101081.99
2022-08-30T18:22:57.491Z,101080.27
2022-08-30T18:25:41.675Z,101086.75
2022-08-30T18:28:28.810Z,101087.16
2022-08-30T18:31:30.631Z,101088.95
2022-08-30T18:34:14.505Z,101091.52
2022-08-30T18:37:11.429Z,101093.97
2022-08-30T18:40:00.915Z,101095.55
2022-08-30T18:44:27.795Z,101093.70
2022-08-30T18:47:23.172Z,101094.58
2022-08-30T18:50:24.680Z,101092.02
2022-08-30T18:53:11.663Z,101087.92
2022-08-30T18:56:02.336Z,101093.42
2022-08-30T18:58:48.512Z,101094.92
2022-08-30T19:01:41.987Z,101099.72
2022-08-30T19:04:38.948Z,101099.82
2022-08-30T19:07:34.518Z,101101.85
2022-08-30T19:10:35.827Z,101101.38
2022-08-30T19:13:29.814Z,101104.79
2022-08-30T19:16:15.024Z,101104.98
2022-08-30T19:18:56.753Z,101107.79
2022-08-30T19:21:40.648Z,101104.44
2022-08-30T19:24:38.081Z,101107.19
2022-08-30T19:27:37.247Z,101112.13
2022-08-30T19:30:35.945Z,101109.35
2022-08-30T19:33:28.564Z,101108.73
2022-08-30T19:36:09.701Z,101107.73
2022-08-30T19:38:59.524Z,101110.09
2022-08-30T19:41:42.658Z,101106.42
2022-08-30T19:44:29.805Z,101111.17
2022-08-30T19:47:28.004Z,101108.42
2022-08-30T19:50:20.665Z,101108.13
2022-08-30T19:53:15.591Z,101108.91
2022-08-30T19:56:05.093Z,101107.16
2022-08-30T19:58:54.520Z,101113.33
2022-08-30T20:01:40.474Z,101111.38
2022-08-30T20:04:42.531Z,101118.50
2022-08-30T20:07:45.504Z,101114.23
2022-08-30T20:10:41.577Z,101111.35
2022-08-30T20:16:38.110Z,101110.48
2022-08-30T20:22:54.358Z,101108.46
2022-08-30T20:25:36.506Z,101107.67
2022-08-30T20:28:24.940Z,101113.50
2022-08-30T20:31:11.725Z,101115.52
2022-08-30T20:34:06.450Z,101118.37
2022-08-30T20:36:55.533Z,101117.08
2022-08-30T20:39:40.456Z,101118.09
2022-08-30T20:42:38.194Z,101118.72
2022-08-30T20:45:24.945Z,101118.69
2022-08-30T20:48:24.793Z,101124.91
2022-08-30T20:51:21.520Z,101118.29
2022-08-30T20:57:21.353Z,101120.71
2022-08-30T21:00:15.464Z,101126.50
2022-08-30T21:03:01.710Z,101129.15
2022-08-30T21:06:05.085Z,101131.10
2022-08-30T21:08:50.445Z,101130.27
2022-08-30T21:11:44.517Z,101129.10
2022-08-30T21:18:20.426Z,101137.14
2022-08-30T21:21:24.183Z,101137.89
2022-08-30T21:27:14.317Z,101143.56
2022-08-30T21:30:09.400Z,101136.77
2022-08-30T21:36:29.301Z,101140.94
2022-08-30T21:42:32.638Z,101143.10
2022-08-30T21:45:13.317Z,101140.52
2022-08-30T21:50:47.616Z,101138.48
2022-08-30T21:53:48.673Z,101136.29
2022-08-30T21:56:58.960Z,101132.30
2022-08-30T21:59:54.499Z,101127.91
2022-08-30T22:02:46.697Z,101126.31
2022-08-30T22:05:38.303Z,101120.55
2022-08-30T22:08:12.308Z,101123.66
2022-08-30T22:10:58.313Z,101126.83
2022-08-30T22:13:45.671Z,101125.56
2022-08-30T22:16:42.465Z,101129.20
2022-08-30T22:19:28.393Z,101127.26
2022-08-30T22:22:18.369Z,101129.20
2022-08-30T22:25:04.356Z,101129.98
2022-08-30T22:27:51.337Z,101131.55
2022-08-30T22:30:35.500Z,101129.14
2022-08-30T22:33:23.465Z,101127.73
2022-08-30T22:36:16.311Z,101132.25
2022-08-30T22:39:03.465Z,101129.48
2022-08-30T22:41:50.906Z,101125.67
2022-08-30T22:44:45.438Z,101126.89
2022-08-30T22:47:36.554Z,101127.38
2022-08-30T22:50:32.191Z,101124.92
2022-08-30T22:53:20.403Z,101123.54
2022-08-30T22:56:14.495Z,101122.85
2022-08-30T22:59:00.174Z,101124.58
2022-08-30T23:01:53.484Z,101126.26
2022-08-30T23:04:45.216Z,101122.58
2022-08-30T23:07:41.445Z,101122.23
2022-08-30T23:10:34.265Z,101124.66
2022-08-30T23:13:28.335Z,101124.30
2022-08-30T23:16:15.219Z,101124.17
2022-08-30T23:19:10.164Z,101131.34
2022-08-30T23:22:03.285Z,101129.98
2022-08-30T23:25:06.345Z,101132.50
2022-08-30T23:28:11.249Z,101133.54
2022-08-30T23:31:20.566Z,101133.48
2022-08-30T23:34:17.575Z,101129.66
2022-08-30T23:37:22.334Z,101127.30
2022-08-30T23:40:32.541Z,101130.23
2022-08-30T23:43:35.623Z,101134.77
2022-08-30T23:46:40.320Z,101129.42
2022-08-30T23:49:49.264Z,101126.55
2022-08-30T23:52:52.352Z,101128.61
2022-08-30T23:56:03.322Z,101128.05
2022-08-30T23:59:09.260Z,101133.58
